Time;durP1;ratioP1;P1;durP2;ratioP2;P2;SDS_P1;SDS_P2;PMS_P1;PMS_P2;Temp;Humidity;BMP_temperature;BMP_pressure;BME280_temperature;BME280_humidity;BME280_pressure;Samples;Min_cycle;Max_cycle;Signal;HPM_P1;HPM_P2
2021/04/23 00:00:27;;;;;;;21.98;11.65;;;;;;;;;;5113649;28;20426;-67
2021/04/23 00:02:53;;;;;;;22.80;10.87;;;;;;;;;;5113769;28;20028;-68
2021/04/23 00:05:19;;;;;;;24.00;11.05;;;;;;;;;;5112582;28;20261;-66
2021/04/23 00:07:44;;;;;;;25.73;11.20;;;;;;;;;;5113581;28;20038;-68
2021/04/23 00:10:12;;;;;;;28.15;12.73;;;;;;;;;;5112430;28;20086;-69
2021/04/23 00:12:38;;;;;;;30.83;14.35;;;;;;;;;;5113692;28;20024;-66
2021/04/23 00:15:04;;;;;;;42.05;16.33;;;;;;;;;;5112425;28;20110;-67
2021/04/23 00:17:29;;;;;;;43.78;18.52;;;;;;;;;;5113457;28;20088;-68
2021/04/23 00:19:54;;;;;;;40.63;17.67;;;;;;;;;;5113538;28;20020;-67
2021/04/23 00:22:20;;;;;;;29.92;14.38;;;;;;;;;;5113554;28;20023;-67
2021/04/23 00:24:46;;;;;;;35.80;14.73;;;;;;;;;;5111780;28;20457;-69
2021/04/23 00:27:11;;;;;;;28.45;12.77;;;;;;;;;;5113446;28;20122;-70
2021/04/23 00:29:37;;;;;;;23.02;10.70;;;;;;;;;;5113429;28;20146;-70
2021/04/23 00:34:48;;;;;;;32.20;15.63;;;;;;;;;;5113519;28;20386;-71
2021/04/23 00:37:13;;;;;;;29.08;15.35;;;;;;;;;;5113187;28;20019;-70
2021/04/23 00:39:39;;;;;;;28.15;13.80;;;;;;;;;;5111916;28;20408;-70
2021/04/23 00:42:05;;;;;;;27.75;12.20;;;;;;;;;;5112892;28;20048;-69
2021/04/23 00:44:30;;;;;;;27.33;14.05;;;;;;;;;;5113481;28;20031;-69
2021/04/23 00:46:56;;;;;;;28.52;13.63;;;;;;;;;;5116927;28;20027;-68
2021/04/23 00:49:21;;;;;;;25.23;12.65;;;;;;;;;;5115741;28;20026;-68
2021/04/23 00:51:50;;;;;;;24.73;11.65;;;;;;;;;;5098537;28;20475;-68
2021/04/23 00:54:15;;;;;;;30.38;13.80;;;;;;;;;;5116547;28;20036;-68
2021/04/23 00:56:41;;;;;;;55.08;23.80;;;;;;;;;;5116860;28;20020;-68
2021/04/23 00:59:08;;;;;;;42.47;17.17;;;;;;;;;;5116431;28;20484;-68
2021/04/23 01:01:35;;;;;;;33.67;15.48;;;;;;;;;;5116799;28;20015;-68
2021/04/23 01:04:03;;;;;;;26.48;12.45;;;;;;;;;;5116718;28;20444;-67
2021/04/23 01:06:31;;;;;;;27.67;12.38;;;;;;;;;;5116592;28;20609;-68
2021/04/23 01:08:57;;;;;;;24.20;11.82;;;;;;;;;;5116624;27;20477;-67
2021/04/23 01:11:24;;;;;;;23.00;10.70;;;;;;;;;;5116629;28;20019;-67
2021/04/23 01:13:50;;;;;;;23.15;10.65;;;;;;;;;;5116516;28;20083;-67
2021/04/23 01:16:21;;;;;;;21.35;10.48;;;;;;;;;;5116611;28;20094;-66
2021/04/23 01:18:47;;;;;;;22.55;10.65;;;;;;;;;;5116450;28;20184;-67
2021/04/23 01:21:14;;;;;;;18.85;9.50;;;;;;;;;;5115053;28;20044;-67
2021/04/23 01:23:42;;;;;;;18.13;8.80;;;;;;;;;;5116136;28;20023;-68
2021/04/23 01:26:08;;;;;;;16.73;9.23;;;;;;;;;;5114948;28;20015;-66
2021/04/23 01:28:36;;;;;;;27.90;12.48;;;;;;;;;;5116020;28;20388;-66
2021/04/23 01:31:04;;;;;;;25.15;12.40;;;;;;;;;;5116122;28;20024;-67
2021/04/23 01:33:30;;;;;;;29.40;13.13;;;;;;;;;;5116011;28;20034;-70
2021/04/23 01:35:55;;;;;;;25.25;12.13;;;;;;;;;;5115970;28;20019;-67
2021/04/23 01:38:21;;;;;;;22.98;10.35;;;;;;;;;;5115896;28;20130;-67
2021/04/23 01:40:47;;;;;;;22.88;9.98;;;;;;;;;;5114348;28;20035;-70
2021/04/23 01:43:13;;;;;;;22.77;10.00;;;;;;;;;;5115969;28;20028;-65
2021/04/23 01:45:39;;;;;;;23.20;10.50;;;;;;;;;;5115960;28;20030;-65
2021/04/23 01:48:05;;;;;;;20.83;9.77;;;;;;;;;;5115845;28;20027;-67
2021/04/23 01:50:31;;;;;;;25.25;10.57;;;;;;;;;;5115646;28;20444;-66
2021/04/23 01:52:57;;;;;;;23.45;10.88;;;;;;;;;;5115621;28;20035;-65
2021/04/23 01:55:23;;;;;;;24.00;11.55;;;;;;;;;;5115525;28;20058;-66
2021/04/23 01:57:49;;;;;;;21.45;10.77;;;;;;;;;;5115645;28;20039;-67
2021/04/23 02:00:20;;;;;;;22.27;11.25;;;;;;;;;;5115584;28;20015;-67
2021/04/23 02:02:47;;;;;;;28.25;11.98;;;;;;;;;;5115787;28;20038;-66
2021/04/23 02:05:13;;;;;;;26.10;13.05;;;;;;;;;;5114143;28;20062;-66
2021/04/23 02:07:39;;;;;;;27.02;11.70;;;;;;;;;;5115381;28;20027;-65
2021/04/23 02:10:06;;;;;;;21.92;11.75;;;;;;;;;;5115495;28;20027;-62
2021/04/23 02:12:32;;;;;;;24.58;12.00;;;;;;;;;;5115141;28;20478;-65
2021/04/23 02:14:57;;;;;;;24.42;11.68;;;;;;;;;;5115376;28;20112;-65
2021/04/23 02:17:23;;;;;;;24.27;12.25;;;;;;;;;;5115076;28;20063;-65
2021/04/23 02:19:49;;;;;;;22.10;11.52;;;;;;;;;;5115235;28;20012;-68
2021/04/23 02:22:14;;;;;;;24.55;12.25;;;;;;;;;;5113988;28;20489;-66
2021/04/23 02:24:39;;;;;;;25.52;12.20;;;;;;;;;;5114896;28;20454;-65
2021/04/23 02:27:05;;;;;;;22.70;11.25;;;;;;;;;;5115007;28;20069;-65
2021/04/23 02:29:31;;;;;;;25.50;11.88;;;;;;;;;;5114899;27;20007;-65
2021/04/23 02:31:56;;;;;;;20.50;10.88;;;;;;;;;;5114846;28;20027;-65
2021/04/23 02:34:23;;;;;;;24.90;11.52;;;;;;;;;;5114930;28;20419;-66
2021/04/23 02:36:48;;;;;;;24.13;11.77;;;;;;;;;;5114798;28;20028;-65
2021/04/23 02:39:14;;;;;;;25.88;11.20;;;;;;;;;;5114544;28;20077;-64
2021/04/23 02:41:42;;;;;;;24.45;10.93;;;;;;;;;;5113175;28;20044;-66
2021/04/23 02:44:08;;;;;;;24.50;11.27;;;;;;;;;;5114678;28;20052;-66
2021/04/23 02:46:39;;;;;;;26.10;12.65;;;;;;;;;;5114616;28;20020;-66
2021/04/23 02:49:05;;;;;;;26.10;11.60;;;;;;;;;;5114648;28;20031;-66
2021/04/23 02:51:32;;;;;;;25.05;12.85;;;;;;;;;;5114560;28;20465;-64
2021/04/23 02:53:58;;;;;;;22.75;11.48;;;;;;;;;;5114527;28;20457;-64
2021/04/23 02:56:24;;;;;;;26.35;12.40;;;;;;;;;;5113045;28;20029;-64
2021/04/23 02:58:50;;;;;;;25.23;11.98;;;;;;;;;;5114436;28;20061;-63
2021/04/23 03:01:16;;;;;;;22.20;11.18;;;;;;;;;;5114371;28;20015;-63
2021/04/23 03:03:42;;;;;;;24.27;11.18;;;;;;;;;;5114354;28;20027;-63
2021/04/23 03:06:08;;;;;;;24.83;12.13;;;;;;;;;;5114366;28;20442;-63
2021/04/23 03:08:34;;;;;;;24.65;11.77;;;;;;;;;;5112416;28;20031;-63
2021/04/23 03:11:07;;;;;;;28.63;12.27;;;;;;;;;;5113049;28;20472;-64
2021/04/23 03:13:33;;;;;;;23.88;12.32;;;;;;;;;;5114561;28;20031;-68
2021/04/23 03:15:59;;;;;;;26.30;13.68;;;;;;;;;;5113138;28;20072;-64
2021/04/23 03:18:25;;;;;;;23.38;12.18;;;;;;;;;;5114062;28;20024;-63
2021/04/23 03:20:52;;;;;;;23.65;12.07;;;;;;;;;;5114157;28;20050;-64
2021/04/23 03:23:19;;;;;;;24.40;12.05;;;;;;;;;;5114078;28;20023;-65
2021/04/23 03:25:44;;;;;;;27.55;13.05;;;;;;;;;;5114120;28;20084;-64
2021/04/23 03:28:10;;;;;;;23.83;12.10;;;;;;;;;;5114163;28;20088;-66
2021/04/23 03:30:40;;;;;;;27.20;12.18;;;;;;;;;;5113921;28;20461;-66
2021/04/23 03:33:08;;;;;;;23.70;12.23;;;;;;;;;;5113882;28;20029;-66
2021/04/23 03:35:33;;;;;;;23.50;12.00;;;;;;;;;;5112532;28;20084;-66
2021/04/23 03:38:00;;;;;;;24.50;12.48;;;;;;;;;;5113771;28;20035;-65
2021/04/23 03:40:26;;;;;;;25.30;12.05;;;;;;;;;;5113389;28;20039;-64
2021/04/23 03:42:52;;;;;;;23.65;11.75;;;;;;;;;;5114001;28;20380;-63
2021/04/23 03:45:19;;;;;;;24.70;11.75;;;;;;;;;;5113964;28;20111;-63
2021/04/23 03:47:44;;;;;;;24.75;12.10;;;;;;;;;;5113741;28;20046;-63
2021/04/23 03:50:11;;;;;;;25.05;11.27;;;;;;;;;;5113693;28;20031;-64
2021/04/23 03:52:37;;;;;;;26.08;12.52;;;;;;;;;;5112381;28;20031;-65
2021/04/23 03:55:06;;;;;;;24.48;12.57;;;;;;;;;;5114004;28;20185;-64
2021/04/23 03:57:32;;;;;;;23.85;12.13;;;;;;;;;;5113719;28;20067;-65
2021/04/23 03:59:58;;;;;;;30.38;17.38;;;;;;;;;;5113859;28;20403;-65
2021/04/23 04:02:23;;;;;;;31.52;17.52;;;;;;;;;;5113609;28;20023;-66
2021/04/23 04:04:49;;;;;;;30.55;18.98;;;;;;;;;;5113779;28;20019;-66
2021/04/23 04:07:14;;;;;;;30.20;17.40;;;;;;;;;;5113559;28;20454;-64
2021/04/23 04:09:40;;;;;;;29.08;17.80;;;;;;;;;;5113566;28;20019;-65
2021/04/23 04:12:06;;;;;;;32.80;16.30;;;;;;;;;;5113552;28;20072;-66
2021/04/23 04:14:31;;;;;;;26.23;12.63;;;;;;;;;;5113652;28;20537;-66
2021/04/23 04:16:56;;;;;;;26.33;12.77;;;;;;;;;;5113729;28;20024;-66
2021/04/23 04:19:22;;;;;;;24.20;12.88;;;;;;;;;;5112381;28;20437;-65
2021/04/23 04:21:47;;;;;;;25.05;12.30;;;;;;;;;;5117512;28;20026;-65
2021/04/23 04:24:13;;;;;;;24.15;11.45;;;;;;;;;;5117345;28;20024;-66
2021/04/23 04:26:38;;;;;;;23.73;12.10;;;;;;;;;;5117282;28;20085;-65
2021/04/23 04:29:04;;;;;;;23.63;12.07;;;;;;;;;;5117184;28;20073;-66
2021/04/23 04:31:31;;;;;;;21.17;11.95;;;;;;;;;;5115927;28;20034;-66
2021/04/23 04:33:57;;;;;;;22.65;12.35;;;;;;;;;;5117390;28;20050;-66
2021/04/23 04:36:22;;;;;;;24.42;11.77;;;;;;;;;;5117145;28;20434;-66
2021/04/23 04:38:48;;;;;;;21.92;11.43;;;;;;;;;;5117069;28;20027;-65
2021/04/23 04:41:14;;;;;;;26.70;13.20;;;;;;;;;;5116634;28;20036;-66
2021/04/23 04:43:39;;;;;;;23.27;11.68;;;;;;;;;;5115696;28;20105;-66
2021/04/23 04:46:05;;;;;;;24.63;12.43;;;;;;;;;;5116965;28;20047;-66
2021/04/23 04:48:30;;;;;;;24.48;12.38;;;;;;;;;;5117011;28;20024;-65
2021/04/23 04:50:57;;;;;;;31.20;15.02;;;;;;;;;;5115660;28;20522;-64
2021/04/23 04:53:23;;;;;;;43.53;23.55;;;;;;;;;;5117065;28;20024;-64
2021/04/23 04:55:50;;;;;;;33.33;22.02;;;;;;;;;;5116821;28;20362;-64
2021/04/23 04:58:16;;;;;;;35.60;14.23;;;;;;;;;;5116720;28;20024;-64
2021/04/23 05:00:42;;;;;;;27.42;13.45;;;;;;;;;;5114871;28;20457;-64
2021/04/23 05:03:08;;;;;;;35.25;14.20;;;;;;;;;;5115403;28;20072;-66
2021/04/23 05:05:34;;;;;;;36.67;14.35;;;;;;;;;;5116612;28;20028;-66
2021/04/23 05:08:00;;;;;;;32.80;14.40;;;;;;;;;;5116631;28;20030;-65
2021/04/23 05:10:25;;;;;;;39.15;16.88;;;;;;;;;;5115036;28;20114;-67
2021/04/23 05:12:51;;;;;;;42.90;17.95;;;;;;;;;;5116476;28;20445;-68
2021/04/23 05:15:19;;;;;;;35.20;16.27;;;;;;;;;;5116558;28;20032;-65
2021/04/23 05:17:48;;;;;;;37.60;18.25;;;;;;;;;;5116492;28;20027;-65
2021/04/23 05:20:14;;;;;;;32.55;16.98;;;;;;;;;;5114978;28;20030;-65
2021/04/23 05:22:40;;;;;;;30.27;17.02;;;;;;;;;;5115943;28;20011;-63
2021/04/23 05:25:07;;;;;;;34.72;18.25;;;;;;;;;;5115759;28;20503;-65
2021/04/23 05:27:32;;;;;;;25.75;15.40;;;;;;;;;;5116260;28;20023;-65
2021/04/23 05:29:58;;;;;;;26.17;14.10;;;;;;;;;;5116083;28;20032;-65
2021/04/23 05:32:24;;;;;;;24.00;11.95;;;;;;;;;;5115722;28;20027;-64
2021/04/23 05:34:50;;;;;;;15.00;7.60;;;;;;;;;;5114592;28;20080;-64
2021/04/23 05:37:15;;;;;;;14.27;7.80;;;;;;;;;;5115773;28;20027;-64
2021/04/23 05:39:44;;;;;;;16.40;8.20;;;;;;;;;;5115791;28;20023;-64
2021/04/23 05:42:13;;;;;;;12.25;6.38;;;;;;;;;;5115696;28;20397;-64
2021/04/23 05:44:38;;;;;;;12.35;7.18;;;;;;;;;;5114523;28;20473;-64
2021/04/23 05:47:07;;;;;;;12.43;6.95;;;;;;;;;;5115679;28;20041;-64
2021/04/23 05:49:33;;;;;;;12.88;6.85;;;;;;;;;;5115717;28;20023;-64
2021/04/23 05:51:59;;;;;;;14.48;7.55;;;;;;;;;;5114102;28;20065;-64
2021/04/23 05:54:25;;;;;;;12.30;6.32;;;;;;;;;;5114636;28;20035;-64
2021/04/23 05:56:50;;;;;;;16.40;8.45;;;;;;;;;;5115536;28;20107;-64
2021/04/23 05:59:16;;;;;;;17.20;8.85;;;;;;;;;;5114264;28;20034;-64
2021/04/23 06:01:42;;;;;;;11.90;7.07;;;;;;;;;;5115301;28;20037;-64
2021/04/23 06:04:07;;;;;;;13.75;7.05;;;;;;;;;;5115576;28;20027;-64
2021/04/23 06:06:33;;;;;;;10.27;5.68;;;;;;;;;;5115300;28;20491;-64
2021/04/23 06:08:58;;;;;;;12.52;7.43;;;;;;;;;;5115104;28;20032;-64
2021/04/23 06:11:24;;;;;;;15.25;6.10;;;;;;;;;;5115257;28;20076;-65
2021/04/23 06:13:49;;;;;;;9.13;5.53;;;;;;;;;;5115285;28;20031;-65
2021/04/23 06:16:15;;;;;;;10.32;5.97;;;;;;;;;;5115304;28;20020;-64
2021/04/23 06:18:41;;;;;;;12.02;6.35;;;;;;;;;;5115114;28;20042;-64
2021/04/23 06:21:07;;;;;;;10.73;5.95;;;;;;;;;;5115138;28;20043;-64
2021/04/23 06:23:33;;;;;;;12.30;7.25;;;;;;;;;;5114926;28;20084;-64
2021/04/23 06:25:58;;;;;;;12.95;6.82;;;;;;;;;;5115079;28;20018;-64
2021/04/23 06:28:26;;;;;;;9.85;6.63;;;;;;;;;;5115025;28;20027;-64
2021/04/23 06:30:53;;;;;;;10.45;6.15;;;;;;;;;;5114608;28;20043;-64
2021/04/23 06:33:23;;;;;;;11.52;6.50;;;;;;;;;;5114762;28;20024;-64
2021/04/23 06:35:48;;;;;;;11.70;6.33;;;;;;;;;;5113729;28;20045;-64
2021/04/23 06:38:14;;;;;;;10.13;5.88;;;;;;;;;;5114608;28;20281;-65
2021/04/23 06:40:39;;;;;;;8.38;4.45;;;;;;;;;;5112480;28;20036;-62
2021/04/23 06:43:05;;;;;;;12.70;5.55;;;;;;;;;;5113801;28;20384;-61
2021/04/23 06:45:31;;;;;;;7.20;5.43;;;;;;;;;;5113614;28;20016;-62
2021/04/23 06:47:57;;;;;;;8.35;5.60;;;;;;;;;;5112370;28;20059;-62
2021/04/23 06:50:23;;;;;;;6.90;4.57;;;;;;;;;;5113812;28;20395;-61
2021/04/23 06:52:49;;;;;;;6.40;4.38;;;;;;;;;;5113999;28;20027;-61
2021/04/23 06:55:16;;;;;;;6.57;4.72;;;;;;;;;;5112317;28;20039;-61
2021/04/23 06:57:42;;;;;;;6.10;3.58;;;;;;;;;;5113587;28;20020;-61
2021/04/23 07:00:13;;;;;;;5.53;4.68;;;;;;;;;;5113635;28;20031;-61
2021/04/23 07:02:39;;;;;;;7.38;4.60;;;;;;;;;;5113890;28;20023;-62
2021/04/23 07:05:05;;;;;;;6.55;4.43;;;;;;;;;;5113743;28;20028;-62
2021/04/23 07:07:31;;;;;;;5.88;3.83;;;;;;;;;;5113707;28;20020;-61
2021/04/23 07:09:57;;;;;;;4.28;3.22;;;;;;;;;;5112570;28;20016;-62
2021/04/23 07:12:22;;;;;;;6.20;4.75;;;;;;;;;;5113649;28;20469;-62
2021/04/23 07:14:48;;;;;;;7.65;4.95;;;;;;;;;;5113512;28;20023;-61
2021/04/23 07:17:13;;;;;;;7.32;4.22;;;;;;;;;;5113523;28;20451;-61
2021/04/23 07:19:39;;;;;;;4.75;3.88;;;;;;;;;;5113561;28;20528;-61
2021/04/23 07:22:05;;;;;;;9.07;5.10;;;;;;;;;;5113525;28;20479;-62
2021/04/23 07:24:31;;;;;;;8.57;5.13;;;;;;;;;;5113635;28;20024;-61
2021/04/23 07:26:57;;;;;;;6.18;5.18;;;;;;;;;;5113566;28;20102;-61
2021/04/23 07:29:22;;;;;;;8.73;6.00;;;;;;;;;;5112192;28;20422;-61
2021/04/23 07:31:48;;;;;;;6.63;4.30;;;;;;;;;;5113195;28;20085;-61
2021/04/23 07:34:13;;;;;;;7.93;5.28;;;;;;;;;;5113609;28;20037;-61
2021/04/23 07:36:39;;;;;;;6.10;4.38;;;;;;;;;;5113941;28;20028;-62
2021/04/23 07:39:04;;;;;;;4.88;4.15;;;;;;;;;;5112239;28;20020;-62
2021/04/23 07:41:30;;;;;;;5.50;3.70;;;;;;;;;;5113385;28;20046;-62
2021/04/23 07:43:55;;;;;;;5.60;4.00;;;;;;;;;;5113767;28;20039;-62
2021/04/23 07:46:21;;;;;;;7.35;4.30;;;;;;;;;;5113519;28;20024;-62
2021/04/23 07:48:47;;;;;;;7.32;4.53;;;;;;;;;;5113866;28;20039;-62
2021/04/23 07:51:12;;;;;;;7.30;4.63;;;;;;;;;;5113833;28;20023;-61
2021/04/23 07:53:39;;;;;;;5.90;5.25;;;;;;;;;;5114539;28;20468;-62
2021/04/23 07:56:08;;;;;;;5.82;4.45;;;;;;;;;;5117912;28;20039;-62
2021/04/23 07:58:33;;;;;;;5.50;3.90;;;;;;;;;;5116614;28;20435;-62
2021/04/23 08:01:00;;;;;;;5.90;4.00;;;;;;;;;;5118149;28;20110;-61
2021/04/23 08:03:29;;;;;;;5.93;4.05;;;;;;;;;;5116429;28;20070;-61
2021/04/23 08:05:54;;;;;;;4.15;3.40;;;;;;;;;;5117961;28;20362;-61
2021/04/23 08:08:21;;;;;;;4.90;3.90;;;;;;;;;;5117988;28;20085;-62
2021/04/23 08:10:47;;;;;;;5.45;3.42;;;;;;;;;;5117397;28;20385;-61
2021/04/23 08:13:12;;;;;;;4.00;3.35;;;;;;;;;;5117530;28;20030;-61
2021/04/23 08:15:38;;;;;;;3.88;2.92;;;;;;;;;;5117603;28;20110;-61
2021/04/23 08:18:04;;;;;;;3.58;3.28;;;;;;;;;;5117322;28;20513;-62
2021/04/23 08:20:30;;;;;;;3.97;3.20;;;;;;;;;;5115844;28;20072;-62
2021/04/23 08:22:55;;;;;;;4.97;3.33;;;;;;;;;;5117244;28;20020;-64
2021/04/23 08:25:21;;;;;;;3.58;2.97;;;;;;;;;;5117228;28;20031;-62
2021/04/23 08:27:48;;;;;;;3.55;2.45;;;;;;;;;;5117201;28;20175;-61
2021/04/23 08:30:14;;;;;;;3.50;3.20;;;;;;;;;;5117027;28;20038;-61
2021/04/23 08:32:39;;;;;;;4.38;3.47;;;;;;;;;;5117280;28;20027;-61
2021/04/23 08:35:06;;;;;;;4.78;3.47;;;;;;;;;;5117126;28;20046;-61
2021/04/23 08:37:31;;;;;;;3.67;3.13;;;;;;;;;;5116957;28;20011;-62
2021/04/23 08:39:57;;;;;;;4.88;2.90;;;;;;;;;;5117061;28;20028;-61
2021/04/23 08:42:22;;;;;;;4.40;3.08;;;;;;;;;;5115435;28;20478;-61
2021/04/23 08:44:48;;;;;;;5.47;2.88;;;;;;;;;;5116976;28;20057;-61
2021/04/23 08:47:15;;;;;;;4.55;3.65;;;;;;;;;;5116944;28;20453;-61
2021/04/23 08:49:42;;;;;;;6.60;4.15;;;;;;;;;;5116785;28;20035;-65
2021/04/23 08:52:07;;;;;;;3.88;3.03;;;;;;;;;;5115432;28;20399;-65
2021/04/23 08:54:33;;;;;;;3.50;3.20;;;;;;;;;;5116790;28;20118;-65
2021/04/23 08:56:58;;;;;;;3.08;2.75;;;;;;;;;;5116730;28;20107;-65
2021/04/23 08:59:24;;;;;;;3.95;2.50;;;;;;;;;;5115634;28;20129;-65
2021/04/23 09:01:50;;;;;;;4.18;2.97;;;;;;;;;;5116768;28;20358;-65
2021/04/23 09:04:16;;;;;;;3.17;2.97;;;;;;;;;;5116479;28;20418;-65
2021/04/23 09:06:41;;;;;;;2.85;2.65;;;;;;;;;;5115909;28;20157;-65
2021/04/23 09:09:08;;;;;;;4.22;3.83;;;;;;;;;;5116128;28;20057;-64
2021/04/23 09:11:44;;;;;;;5.10;3.53;;;;;;;;;;5115513;28;20429;-65
2021/04/23 09:14:14;;;;;;;4.38;3.75;;;;;;;;;;5115649;28;20118;-65
2021/04/23 09:16:52;;;;;;;4.43;3.47;;;;;;;;;;5116627;28;20108;-65
2021/04/23 09:19:24;;;;;;;4.20;3.45;;;;;;;;;;5116386;28;20285;-65
2021/04/23 09:22:00;;;;;;;6.22;3.45;;;;;;;;;;5116232;28;20034;-65
2021/04/23 09:24:30;;;;;;;4.03;3.55;;;;;;;;;;5116304;28;20038;-65
2021/04/23 09:26:56;;;;;;;6.63;4.32;;;;;;;;;;5116265;28;20020;-65
2021/04/23 09:29:27;;;;;;;5.72;3.75;;;;;;;;;;5114768;28;20110;-65
2021/04/23 09:31:53;;;;;;;6.38;3.88;;;;;;;;;;5114907;28;20028;-65
2021/04/23 09:34:19;;;;;;;4.57;3.70;;;;;;;;;;5114698;28;20031;-65
2021/04/23 09:36:45;;;;;;;3.25;2.75;;;;;;;;;;5115940;28;20028;-65
2021/04/23 09:39:13;;;;;;;2.53;2.35;;;;;;;;;;5115651;28;20073;-65
2021/04/23 09:41:39;;;;;;;2.65;2.20;;;;;;;;;;5115723;28;20034;-65
2021/04/23 09:44:23;;;;;;;4.82;2.40;;;;;;;;;;5115908;28;20028;-63
2021/04/23 09:46:55;;;;;;;3.28;2.42;;;;;;;;;;5115826;28;20023;-63
2021/04/23 09:49:23;;;;;;;3.13;2.03;;;;;;;;;;5115757;28;20028;-61
2021/04/23 09:51:48;;;;;;;2.50;1.42;;;;;;;;;;5114435;28;20361;-61
2021/04/23 09:54:21;;;;;;;1.80;1.33;;;;;;;;;;5114118;28;20027;-61
2021/04/23 09:56:47;;;;;;;2.03;1.92;;;;;;;;;;5115753;28;20032;-61
2021/04/23 09:59:13;;;;;;;2.70;2.50;;;;;;;;;;5114362;28;20031;-61
2021/04/23 10:01:49;;;;;;;4.78;3.00;;;;;;;;;;5115660;28;20019;-61
2021/04/23 10:04:34;;;;;;;3.90;2.10;;;;;;;;;;5114088;28;20058;-61
2021/04/23 10:07:19;;;;;;;2.88;2.03;;;;;;;;;;5115635;28;20024;-61
2021/04/23 10:10:02;;;;;;;3.35;2.00;;;;;;;;;;5115726;28;20028;-61
2021/04/23 10:12:27;;;;;;;3.05;2.00;;;;;;;;;;5115494;28;20024;-61
2021/04/23 10:15:00;;;;;;;2.00;1.90;;;;;;;;;;5115281;28;20018;-61
2021/04/23 10:17:26;;;;;;;2.75;2.03;;;;;;;;;;5114096;28;20028;-61
2021/04/23 10:19:53;;;;;;;2.35;1.77;;;;;;;;;;5114824;28;20016;-61
2021/04/23 10:22:19;;;;;;;2.35;2.10;;;;;;;;;;5114689;28;20019;-61
2021/04/23 10:24:45;;;;;;;2.50;2.28;;;;;;;;;;5114347;28;20789;-64
2021/04/23 10:27:10;;;;;;;2.03;1.92;;;;;;;;;;5114767;28;20032;-64
2021/04/23 10:29:36;;;;;;;2.92;2.17;;;;;;;;;;5114722;28;20493;-66
2021/04/23 10:32:04;;;;;;;2.20;1.80;;;;;;;;;;5096523;28;20024;-66
2021/04/23 10:34:35;;;;;;;2.22;2.00;;;;;;;;;;5114916;28;20042;-66
2021/04/23 10:37:01;;;;;;;2.28;2.15;;;;;;;;;;5114848;28;20069;-66
2021/04/23 10:39:27;;;;;;;3.33;3.13;;;;;;;;;;5114837;28;20030;-66
2021/04/23 10:41:53;;;;;;;3.45;2.60;;;;;;;;;;5114537;28;20493;-67
2021/04/23 10:44:21;;;;;;;2.47;2.22;;;;;;;;;;5114188;28;20073;-67
2021/04/23 10:46:49;;;;;;;3.35;2.65;;;;;;;;;;5114618;28;20012;-67
2021/04/23 10:49:15;;;;;;;2.65;2.45;;;;;;;;;;5114825;28;20069;-67
2021/04/23 10:51:42;;;;;;;2.58;2.33;;;;;;;;;;5114755;28;20024;-68
2021/04/23 10:54:14;;;;;;;2.40;2.20;;;;;;;;;;5114724;28;20024;-68
2021/04/23 10:56:49;;;;;;;2.55;2.33;;;;;;;;;;5114424;28;20190;-68
2021/04/23 10:59:20;;;;;;;3.90;2.38;;;;;;;;;;5114198;28;20051;-68
2021/04/23 11:01:46;;;;;;;2.00;1.77;;;;;;;;;;5114430;28;20023;-68
2021/04/23 11:04:13;;;;;;;3.20;2.20;;;;;;;;;;5113002;28;20030;-68
2021/04/23 11:06:43;;;;;;;4.13;2.70;;;;;;;;;;5114097;28;20024;-68
2021/04/23 11:09:10;;;;;;;24.10;8.95;;;;;;;;;;5114191;28;20034;-68
2021/04/23 11:11:36;;;;;;;5.97;2.70;;;;;;;;;;5114139;28;20031;-68
2021/04/23 11:14:20;;;;;;;4.60;2.90;;;;;;;;;;5112659;28;20542;-67
2021/04/23 11:16:49;;;;;;;2.35;2.05;;;;;;;;;;5114142;28;20028;-68
2021/04/23 11:19:20;;;;;;;3.03;1.85;;;;;;;;;;5113181;28;20164;-68
2021/04/23 11:21:49;;;;;;;3.47;2.20;;;;;;;;;;5114049;28;20028;-68
2021/04/23 11:24:17;;;;;;;2.38;2.00;;;;;;;;;;5113763;28;20023;-68
2021/04/23 11:26:52;;;;;;;4.22;2.25;;;;;;;;;;5113769;28;20020;-68
2021/04/23 11:29:18;;;;;;;3.38;2.30;;;;;;;;;;5113370;28;20035;-68
2021/04/23 11:32:13;;;;;;;2.63;2.17;;;;;;;;;;5112351;28;20481;-68
2021/04/23 11:34:38;;;;;;;3.00;2.25;;;;;;;;;;5096010;28;20037;-68
2021/04/23 11:37:06;;;;;;;2.22;2.03;;;;;;;;;;5113633;28;20359;-68
2021/04/23 11:39:33;;;;;;;3.17;1.98;;;;;;;;;;5113786;28;20028;-68
2021/04/23 11:42:18;;;;;;;2.28;2.05;;;;;;;;;;5113472;28;20048;-68
2021/04/23 11:44:44;;;;;;;4.95;2.33;;;;;;;;;;5113737;28;20030;-68
2021/04/23 11:47:10;;;;;;;2.22;2.08;;;;;;;;;;5113756;28;20012;-68
2021/04/23 11:49:35;;;;;;;2.90;2.55;;;;;;;;;;5113727;28;20059;-67
2021/04/23 11:52:02;;;;;;;2.80;2.60;;;;;;;;;;5113846;28;20102;-67
2021/04/23 11:54:28;;;;;;;3.92;2.85;;;;;;;;;;5113703;28;20153;-67
2021/04/23 11:56:54;;;;;;;3.25;2.33;;;;;;;;;;5113695;28;20020;-67
2021/04/23 11:59:19;;;;;;;1.88;1.77;;;;;;;;;;5113597;28;20030;-67
2021/04/23 12:01:45;;;;;;;2.65;2.20;;;;;;;;;;5112650;28;20351;-67
2021/04/23 12:04:10;;;;;;;2.33;2.13;;;;;;;;;;5113785;28;20457;-67
2021/04/23 12:06:36;;;;;;;4.32;2.22;;;;;;;;;;5113766;28;20012;-67
2021/04/23 12:09:14;;;;;;;2.33;2.20;;;;;;;;;;5113500;28;20536;-67
2021/04/23 12:11:39;;;;;;;2.30;2.10;;;;;;;;;;5113645;28;20028;-67
2021/04/23 12:14:05;;;;;;;2.88;2.65;;;;;;;;;;5113414;28;20020;-67
2021/04/23 12:16:30;;;;;;;4.15;3.63;;;;;;;;;;5113359;28;20118;-67
2021/04/23 12:18:56;;;;;;;3.10;2.80;;;;;;;;;;5113256;28;20032;-68
2021/04/23 12:21:22;;;;;;;6.03;3.90;;;;;;;;;;5112412;28;20028;-68
2021/04/23 12:23:49;;;;;;;3.53;2.80;;;;;;;;;;5113634;28;20020;-68
2021/04/23 12:26:15;;;;;;;2.80;2.60;;;;;;;;;;5113322;28;20076;-68
2021/04/23 12:28:43;;;;;;;2.60;2.40;;;;;;;;;;5113523;28;20457;-68
2021/04/23 12:31:16;;;;;;;3.15;2.60;;;;;;;;;;5113323;28;20035;-68
2021/04/23 12:33:45;;;;;;;2.63;2.42;;;;;;;;;;5113463;28;20031;-68
2021/04/23 12:36:17;;;;;;;27.88;13.23;;;;;;;;;;5113315;28;20047;-68
2021/04/23 12:38:44;;;;;;;10.75;6.10;;;;;;;;;;5111689;28;20086;-68
2021/04/23 12:41:33;;;;;;;3.75;3.22;;;;;;;;;;5113259;28;20127;-69
2021/04/23 12:44:09;;;;;;;3.38;2.63;;;;;;;;;;5105840;28;20035;-68
2021/04/23 12:46:39;;;;;;;5.45;3.00;;;;;;;;;;5116932;28;20168;-68
2021/04/23 12:49:13;;;;;;;3.90;3.13;;;;;;;;;;5096410;28;20023;-68
2021/04/23 12:51:44;;;;;;;4.82;3.60;;;;;;;;;;5114490;28;20476;-68
2021/04/23 12:54:11;;;;;;;4.28;3.30;;;;;;;;;;5116307;28;20028;-68
2021/04/23 12:56:36;;;;;;;4.88;3.67;;;;;;;;;;5116566;28;20019;-68
2021/04/23 12:59:03;;;;;;;6.32;4.43;;;;;;;;;;5116449;28;20027;-68
2021/04/23 13:01:29;;;;;;;7.63;5.18;;;;;;;;;;5116467;28;20098;-68
2021/04/23 13:04:20;;;;;;;8.73;5.50;;;;;;;;;;5116467;28;20101;-68
2021/04/23 13:06:46;;;;;;;15.38;7.88;;;;;;;;;;5113048;28;20046;-68
2021/04/23 13:09:12;;;;;;;9.68;5.97;;;;;;;;;;5115631;28;20024;-67
2021/04/23 13:11:39;;;;;;;5.55;4.28;;;;;;;;;;5116432;28;20059;-63
2021/04/23 13:14:14;;;;;;;24.02;12.18;;;;;;;;;;5115357;28;20433;-63
2021/04/23 13:16:52;;;;;;;27.38;11.45;;;;;;;;;;5116267;28;20403;-63
2021/04/23 13:19:29;;;;;;;8.18;5.60;;;;;;;;;;5116422;28;20034;-63
2021/04/23 13:21:54;;;;;;;4.25;3.47;;;;;;;;;;5116229;28;20035;-63
2021/04/23 13:24:20;;;;;;;4.40;3.17;;;;;;;;;;5116173;28;20408;-63
2021/04/23 13:26:45;;;;;;;5.03;4.22;;;;;;;;;;5116185;28;20128;-63
2021/04/23 13:29:11;;;;;;;5.43;3.85;;;;;;;;;;5116286;28;20011;-67
2021/04/23 13:31:36;;;;;;;4.75;3.13;;;;;;;;;;5115999;28;20581;-67
2021/04/23 13:34:05;;;;;;;4.10;3.10;;;;;;;;;;5116083;28;20072;-67
2021/04/23 13:36:31;;;;;;;4.13;3.03;;;;;;;;;;5116293;28;20074;-67
2021/04/23 13:38:58;;;;;;;3.45;3.15;;;;;;;;;;5116207;28;20047;-67
2021/04/23 13:41:24;;;;;;;4.65;3.28;;;;;;;;;;5115210;28;20138;-67
2021/04/23 13:43:49;;;;;;;3.17;2.97;;;;;;;;;;5115960;28;20129;-66
2021/04/23 13:46:15;;;;;;;4.15;3.17;;;;;;;;;;5114846;28;20031;-67
2021/04/23 13:48:46;;;;;;;3.55;3.25;;;;;;;;;;5114560;28;20026;-67
2021/04/23 13:51:14;;;;;;;4.82;3.47;;;;;;;;;;5115949;28;20024;-67
2021/04/23 13:53:39;;;;;;;58.92;18.88;;;;;;;;;;5115451;28;20024;-67
2021/04/23 13:56:10;;;;;;;11.18;6.97;;;;;;;;;;5114658;28;20428;-67
2021/04/23 13:58:52;;;;;;;10.93;7.72;;;;;;;;;;5115686;28;20055;-67
2021/04/23 14:01:28;;;;;;;13.10;8.18;;;;;;;;;;5115759;28;20023;-68
2021/04/23 14:03:53;;;;;;;14.70;8.05;;;;;;;;;;5113950;28;20026;-67
2021/04/23 14:06:19;;;;;;;25.38;13.02;;;;;;;;;;5115603;28;20102;-67
2021/04/23 14:08:45;;;;;;;28.55;15.10;;;;;;;;;;5115473;28;20104;-67
2021/04/23 14:11:11;;;;;;;149.20;52.70;;;;;;;;;;5115359;28;20028;-67
2021/04/23 14:13:37;;;;;;;50.92;24.10;;;;;;;;;;5115090;28;20028;-67
2021/04/23 14:16:02;;;;;;;7.97;4.43;;;;;;;;;;5115400;28;20102;-68
2021/04/23 14:18:28;;;;;;;6.82;4.00;;;;;;;;;;5115239;28;20051;-68
2021/04/23 14:20:55;;;;;;;6.60;4.10;;;;;;;;;;5115406;28;20024;-68
2021/04/23 14:23:21;;;;;;;5.50;4.03;;;;;;;;;;5115066;28;20019;-64
2021/04/23 14:25:48;;;;;;;5.50;4.45;;;;;;;;;;5115129;28;20456;-64
2021/04/23 14:28:14;;;;;;;16.92;8.60;;;;;;;;;;5115279;28;20080;-64
2021/04/23 14:30:39;;;;;;;46.17;22.05;;;;;;;;;;5115222;28;20381;-64
2021/04/23 14:33:05;;;;;;;123.70;68.00;;;;;;;;;;5113652;28;20027;-64